Kezdőlap
METAR-TAF:

METAR-TAF

Repülőterek :

Dayton, Ohio, Amerikai Egyesült Államok

földrajzi szélesség: 39-35-20N, földrajzi hosszúság: 084-13-29W, magasság: 292 m

Jelenlegi meteorológiai megfigyelések

A jelentés 1 órával és 18 perccel ezelõtt készült, 00:53 UTC
Kelet-délkeleti szél 5 kt
Hőmérséklet 24°C
Páratartalom 74%
Légköri nyomás 1016 hPa
Látótávolság: 16.1 km
Szórványos felhőzet 3000 lábon
Szakadozott felhőzet 4100 lábon

METAR: KMGY 230053Z AUTO 11005KT 10SM SCT030 BKN041 24/19 A2999 RMK AO2 LTG DSNT S SLP148 T02440189

Idő: 22:11 (02:11 UTC)


TAF: hiányzik

Meteorológiai megfigyelések és előrejelzések több, mint 4000 repülőtéren (METAR és TAF jelentéseket).

A térképen piros és sárga pontok jelzik az elérhető meteorológiai állomásokat.

Mozgassa az egeret a pont fölött, hogy megjelenjen az állomás neve.

Azután kattintson az időjárási megfigyelések és előrejelzések megtekintéséhez.

A térkép megváltoztatása: kattintson a fekete keresztel jelölt zöld gombra ráközelítéshez, a vonallal jelölt zöld gombra távolításhoz, vagy a zöld nyilakra a szomszédos térképek eléréséhez.


METAR-TAF: